Terminal Aerodrome Forecast
Issued by NWS

Home | Current Version | Previous Version | Text Only | Print | Product List | Glossary On
Versions: 1 2 3 4 5 6 7 8 9 10 11 12 13
000
FTUS44 KMOB 312300 RRA
TAFBFM
TAF
KBFM 312352Z 0100/0124 30009KT P6SM FEW250
     FM010300 34018G28KT P6SM SCT250
     FM011500 34017KT P6SM SKC=

USA.gov is the U.S. government's official web portal to all federal, state and local government web resources and services.